Accueil
METAR-TAF:

METAR-TAF

Aéroports :

Buochs, Suisse

latitude: 46-58-28N, longitude: 8-23-49E, altitude: 449 m

Observation

Le bulletin a été fait il y a 41 minutes, à 20:50 UTC
Vent 9 kt de direction variable
Température 4°C
Humidité 100%
Pression 1012 hPa
Visibilité 10 km ou plus
Ciel couvert à une hauteur de 1800 ft
pluie faible

METAR: LSZC 262050Z AUTO VRB09KT 9999 -RA OVC018 04/04 Q1012

Heure: 23:31 (21:31 UTC)

Prévision

Le bulletin a été fait il y a 7 heures et 6 minutes, à 14:25 UTC
Prévision valable du 26 à 15 UTC au 26 à 24 UTC
Vent 3 kt de direction variable
Visibilité 10 km ou plus
Nuages épars à une hauteur de 800 ft
Nuages fragmentés à une hauteur de 1500 ft
Temporairement
du 26 à 15 UTC au 26 à 24 UTC
Visibilité: 4500 m
Nuages fragmentés à une hauteur de 800 ft
pluie

TAF: LSZC 261425Z 2615/2624 VRB03KT 9999 SCT008 BKN015 TEMPO 2615/2624 4500 RA BKN008

Observations et prévisions météorologiques de plus de 4000 aéroports (messages METAR et TAF).

Les stations disponibles sont représentées par des disques jaunes et rouges sur la carte.

Passer la souris dessus pour voir le nom de la station.

Cliquer dessus pour voir les observations et prévisions météorologiques.

Pour changer de carte: cliquez sur les boutons verts avec une croix noire pour zoomer, sur le bouton vert avec un tiret pour effectuer un zoom arrière, ou sur les flèches vertes pour les cartes adjacentes.


METAR-TAF: